sensor_id;sensor_type;location;lat;lon;timestamp;pressure;altitude;pressure_sealevel;temperature;humidity
77005;BME280;67261;53.132;18.006;2023-03-16T12:55:15;101712.25;;;7.55;57.11
77005;BME280;67261;53.132;18.006;2023-03-16T12:57:45;101710.81;;;7.43;57.26
77005;BME280;67261;53.132;18.006;2023-03-16T13:00:17;101715.79;;;7.35;57.34
77005;BME280;67261;53.132;18.006;2023-03-16T13:02:52;101721.66;;;7.22;57.17
77005;BME280;67261;53.132;18.006;2023-03-16T13:05:57;101722.70;;;7.07;56.99
77005;BME280;67261;53.132;18.006;2023-03-16T13:08:41;101726.15;;;6.93;57.09
77005;BME280;67261;53.132;18.006;2023-03-16T13:11:13;101730.57;;;6.96;56.94
77005;BME280;67261;53.132;18.006;2023-03-16T13:16:40;101727.70;;;7.11;56.37
77005;BME280;67261;53.132;18.006;2023-03-16T13:19:24;101731.61;;;7.11;56.17
77005;BME280;67261;53.132;18.006;2023-03-16T13:22:04;101736.88;;;7.08;56.57
77005;BME280;67261;53.132;18.006;2023-03-16T13:24:38;101734.14;;;7.07;56.52
77005;BME280;67261;53.132;18.006;2023-03-16T13:27:32;101738.44;;;7.09;56.50
77005;BME280;67261;53.132;18.006;2023-03-16T13:30:11;101742.84;;;7.13;56.55
77005;BME280;67261;53.132;18.006;2023-03-16T13:32:44;101744.55;;;7.17;56.36
77005;BME280;67261;53.132;18.006;2023-03-16T13:35:16;101746.23;;;7.15;56.43
77005;BME280;67261;53.132;18.006;2023-03-16T13:37:45;101745.79;;;7.12;56.40
77005;BME280;67261;53.132;18.006;2023-03-16T13:40:23;101745.43;;;7.04;56.36
77005;BME280;67261;53.132;18.006;2023-03-16T13:42:56;101749.48;;;6.94;56.42
77005;BME280;67261;53.132;18.006;2023-03-16T13:45:31;101757.70;;;6.90;56.36
77005;BME280;67261;53.132;18.006;2023-03-16T13:48:00;101755.67;;;6.96;56.17
77005;BME280;67261;53.132;18.006;2023-03-16T13:50:32;101754.61;;;7.04;55.83
77005;BME280;67261;53.132;18.006;2023-03-16T13:53:13;101756.84;;;7.12;55.66
77005;BME280;67261;53.132;18.006;2023-03-16T13:55:44;101755.06;;;7.15;55.67
77005;BME280;67261;53.132;18.006;2023-03-16T13:58:33;101754.65;;;7.13;55.71
77005;BME280;67261;53.132;18.006;2023-03-16T14:01:04;101752.25;;;7.05;55.93
77005;BME280;67261;53.132;18.006;2023-03-16T14:03:33;101750.97;;;7.01;56.11
77005;BME280;67261;53.132;18.006;2023-03-16T14:06:04;101753.50;;;7.07;55.66
77005;BME280;67261;53.132;18.006;2023-03-16T14:08:32;101752.78;;;7.18;55.57
77005;BME280;67261;53.132;18.006;2023-03-16T14:11:01;101756.13;;;7.27;55.36
77005;BME280;67261;53.132;18.006;2023-03-16T14:13:33;101750.91;;;7.34;54.82
77005;BME280;67261;53.132;18.006;2023-03-16T14:16:15;101747.95;;;7.38;54.15
77005;BME280;67261;53.132;18.006;2023-03-16T14:18:50;101750.21;;;7.36;54.15
77005;BME280;67261;53.132;18.006;2023-03-16T14:21:25;101748.98;;;7.36;54.41
77005;BME280;67261;53.132;18.006;2023-03-16T14:24:05;101755.02;;;7.43;54.52
77005;BME280;67261;53.132;18.006;2023-03-16T14:26:46;101754.11;;;7.51;54.21
77005;BME280;67261;53.132;18.006;2023-03-16T14:29:29;101752.30;;;7.56;54.20
77005;BME280;67261;53.132;18.006;2023-03-16T14:31:58;101754.75;;;7.59;53.68
77005;BME280;67261;53.132;18.006;2023-03-16T14:34:36;101755.31;;;7.54;53.66
77005;BME280;67261;53.132;18.006;2023-03-16T14:37:10;101756.55;;;7.49;53.20
77005;BME280;67261;53.132;18.006;2023-03-16T14:39:40;101757.34;;;7.40;53.10
77005;BME280;67261;53.132;18.006;2023-03-16T14:42:28;101753.80;;;7.35;52.84
77005;BME280;67261;53.132;18.006;2023-03-16T14:45:11;101746.09;;;7.38;52.84
77005;BME280;67261;53.132;18.006;2023-03-16T14:47:42;101745.17;;;7.33;52.48
77005;BME280;67261;53.132;18.006;2023-03-16T14:50:23;101747.36;;;7.27;52.38
77005;BME280;67261;53.132;18.006;2023-03-16T14:52:53;101747.08;;;7.24;52.38
77005;BME280;67261;53.132;18.006;2023-03-16T14:55:22;101746.77;;;7.21;51.83
77005;BME280;67261;53.132;18.006;2023-03-16T14:57:59;101748.08;;;7.17;51.95
77005;BME280;67261;53.132;18.006;2023-03-16T15:00:30;101744.14;;;7.20;52.16
77005;BME280;67261;53.132;18.006;2023-03-16T15:10:57;101736.48;;;7.44;51.85
77005;BME280;67261;53.132;18.006;2023-03-16T15:14:15;101730.59;;;7.50;51.94
77005;BME280;67261;53.132;18.006;2023-03-16T15:33:57;101743.51;;;7.76;50.00
77005;BME280;67261;53.132;18.006;2023-03-16T15:36:37;101746.29;;;7.69;49.52
77005;BME280;67261;53.132;18.006;2023-03-16T15:40:15;101752.05;;;7.65;49.75
77005;BME280;67261;53.132;18.006;2023-03-16T15:42:56;101753.16;;;7.57;49.87
77005;BME280;67261;53.132;18.006;2023-03-16T15:45:45;101753.73;;;7.51;50.17
77005;BME280;67261;53.132;18.006;2023-03-16T15:48:44;101751.73;;;7.37;49.90
77005;BME280;67261;53.132;18.006;2023-03-16T15:51:56;101752.89;;;7.23;49.71
77005;BME280;67261;53.132;18.006;2023-03-16T15:55:20;101751.31;;;7.10;49.82
77005;BME280;67261;53.132;18.006;2023-03-16T15:58:15;101751.76;;;6.99;49.83
77005;BME280;67261;53.132;18.006;2023-03-16T16:01:46;101757.38;;;6.89;49.68
77005;BME280;67261;53.132;18.006;2023-03-16T16:05:00;101766.03;;;6.76;49.24
77005;BME280;67261;53.132;18.006;2023-03-16T16:12:43;101776.67;;;6.51;49.30
77005;BME280;67261;53.132;18.006;2023-03-16T16:16:29;101775.78;;;6.44;49.74
77005;BME280;67261;53.132;18.006;2023-03-16T16:20:07;101781.66;;;6.34;50.10
77005;BME280;67261;53.132;18.006;2023-03-16T16:23:18;101786.21;;;6.24;50.25
77005;BME280;67261;53.132;18.006;2023-03-16T16:31:33;101791.02;;;5.99;50.58
77005;BME280;67261;53.132;18.006;2023-03-16T16:34:41;101796.40;;;5.89;50.72
77005;BME280;67261;53.132;18.006;2023-03-16T16:44:34;101808.11;;;5.59;51.49
77005;BME280;67261;53.132;18.006;2023-03-16T16:51:56;101824.51;;;5.35;52.18
77005;BME280;67261;53.132;18.006;2023-03-16T16:54:31;101822.84;;;5.28;52.17
77005;BME280;67261;53.132;18.006;2023-03-16T16:57:30;101825.01;;;5.21;52.30
77005;BME280;67261;53.132;18.006;2023-03-16T17:00:25;101827.98;;;5.13;52.50
77005;BME280;67261;53.132;18.006;2023-03-16T17:03:20;101828.60;;;5.05;52.50
77005;BME280;67261;53.132;18.006;2023-03-16T17:06:36;101831.62;;;4.96;52.90
77005;BME280;67261;53.132;18.006;2023-03-16T17:13:26;101834.96;;;4.78;53.64
77005;BME280;67261;53.132;18.006;2023-03-16T17:16:09;101839.71;;;4.71;53.52
77005;BME280;67261;53.132;18.006;2023-03-16T17:18:45;101838.67;;;4.65;53.96
77005;BME280;67261;53.132;18.006;2023-03-16T17:21:18;101843.17;;;4.60;53.80
77005;BME280;67261;53.132;18.006;2023-03-16T17:23:46;101846.95;;;4.56;53.85
77005;BME280;67261;53.132;18.006;2023-03-16T17:33:19;101850.84;;;4.40;54.47
77005;BME280;67261;53.132;18.006;2023-03-16T17:40:20;101849.08;;;4.28;54.57
77005;BME280;67261;53.132;18.006;2023-03-16T17:42:53;101847.48;;;4.22;54.62
77005;BME280;67261;53.132;18.006;2023-03-16T17:45:29;101849.27;;;4.18;54.70
77005;BME280;67261;53.132;18.006;2023-03-16T17:48:08;101854.59;;;4.14;54.87
77005;BME280;67261;53.132;18.006;2023-03-16T17:50:38;101862.34;;;4.10;55.07
77005;BME280;67261;53.132;18.006;2023-03-16T17:53:09;101865.90;;;4.06;55.16
77005;BME280;67261;53.132;18.006;2023-03-16T17:55:38;101873.77;;;4.00;55.35
77005;BME280;67261;53.132;18.006;2023-03-16T17:58:23;101876.02;;;3.94;55.51
77005;BME280;67261;53.132;18.006;2023-03-16T18:00:55;101880.08;;;3.87;55.56
77005;BME280;67261;53.132;18.006;2023-03-16T18:03:26;101880.67;;;3.79;56.12
77005;BME280;67261;53.132;18.006;2023-03-16T18:05:54;101884.54;;;3.72;56.38
77005;BME280;67261;53.132;18.006;2023-03-16T18:08:29;101888.86;;;3.66;56.49
77005;BME280;67261;53.132;18.006;2023-03-16T18:11:05;101888.48;;;3.60;56.65
77005;BME280;67261;53.132;18.006;2023-03-16T18:13:38;101884.83;;;3.54;57.22
77005;BME280;67261;53.132;18.006;2023-03-16T18:16:09;101883.72;;;3.48;57.58
77005;BME280;67261;53.132;18.006;2023-03-16T18:18:43;101883.06;;;3.44;57.73
77005;BME280;67261;53.132;18.006;2023-03-16T18:21:21;101883.84;;;3.39;57.87
77005;BME280;67261;53.132;18.006;2023-03-16T18:23:50;101885.37;;;3.33;58.33
77005;BME280;67261;53.132;18.006;2023-03-16T18:26:24;101883.55;;;3.28;58.38
77005;BME280;67261;53.132;18.006;2023-03-16T18:28:54;101885.41;;;3.22;58.69
77005;BME280;67261;53.132;18.006;2023-03-16T18:31:26;101887.18;;;3.15;58.91
77005;BME280;67261;53.132;18.006;2023-03-16T18:33:58;101884.48;;;3.06;58.88
77005;BME280;67261;53.132;18.006;2023-03-16T18:36:35;101889.17;;;2.96;59.41
77005;BME280;67261;53.132;18.006;2023-03-16T18:39:06;101894.38;;;2.87;59.54
77005;BME280;67261;53.132;18.006;2023-03-16T18:41:45;101895.08;;;2.76;59.68
77005;BME280;67261;53.132;18.006;2023-03-16T18:46:55;101895.55;;;2.63;60.19
77005;BME280;67261;53.132;18.006;2023-03-16T18:49:31;101894.36;;;2.55;60.67
77005;BME280;67261;53.132;18.006;2023-03-16T18:52:00;101889.80;;;2.45;60.83
77005;BME280;67261;53.132;18.006;2023-03-16T18:54:30;101893.56;;;2.39;60.86
77005;BME280;67261;53.132;18.006;2023-03-16T18:57:09;101894.71;;;2.33;60.73
77005;BME280;67261;53.132;18.006;2023-03-16T18:59:41;101896.48;;;2.29;61.18
77005;BME280;67261;53.132;18.006;2023-03-16T19:02:26;101895.64;;;2.25;61.18
77005;BME280;67261;53.132;18.006;2023-03-16T19:04:57;101895.64;;;2.21;61.33
77005;BME280;67261;53.132;18.006;2023-03-16T19:07:39;101892.88;;;2.17;61.75
77005;BME280;67261;53.132;18.006;2023-03-16T19:13:00;101899.25;;;2.12;62.25
77005;BME280;67261;53.132;18.006;2023-03-16T19:15:30;101899.41;;;2.08;62.61
77005;BME280;67261;53.132;18.006;2023-03-16T19:18:00;101903.18;;;2.05;62.56
77005;BME280;67261;53.132;18.006;2023-03-16T19:20:31;101901.92;;;2.03;62.69
77005;BME280;67261;53.132;18.006;2023-03-16T19:23:24;101905.84;;;2.01;62.80
77005;BME280;67261;53.132;18.006;2023-03-16T19:25:53;101909.86;;;1.93;62.79
77005;BME280;67261;53.132;18.006;2023-03-16T19:28:33;101912.58;;;1.87;62.99
77005;BME280;67261;53.132;18.006;2023-03-16T19:33:40;101923.46;;;1.78;63.61
77005;BME280;67261;53.132;18.006;2023-03-16T19:36:17;101927.63;;;1.74;63.76
77005;BME280;67261;53.132;18.006;2023-03-16T19:38:48;101935.98;;;1.71;63.94
77005;BME280;67261;53.132;18.006;2023-03-16T19:41:20;101942.06;;;1.68;63.67
77005;BME280;67261;53.132;18.006;2023-03-16T19:43:50;101943.92;;;1.65;63.76
77005;BME280;67261;53.132;18.006;2023-03-16T19:46:18;101946.30;;;1.62;64.08
77005;BME280;67261;53.132;18.006;2023-03-16T19:48:49;101951.38;;;1.58;64.04
77005;BME280;67261;53.132;18.006;2023-03-16T19:51:18;101954.94;;;1.52;64.24
77005;BME280;67261;53.132;18.006;2023-03-16T19:53:48;101949.39;;;1.40;63.93
77005;BME280;67261;53.132;18.006;2023-03-16T19:56:19;101943.17;;;1.30;63.98
77005;BME280;67261;53.132;18.006;2023-03-16T19:58:48;101945.08;;;1.27;64.08
77005;BME280;67261;53.132;18.006;2023-03-16T20:01:20;101946.85;;;1.25;64.30
77005;BME280;67261;53.132;18.006;2023-03-16T20:03:49;101941.11;;;1.25;64.23
77005;BME280;67261;53.132;18.006;2023-03-16T20:06:20;101943.02;;;1.26;64.38
77005;BME280;67261;53.132;18.006;2023-03-16T20:08:50;101944.13;;;1.24;64.62
77005;BME280;67261;53.132;18.006;2023-03-16T20:11:21;101942.30;;;1.22;64.78
77005;BME280;67261;53.132;18.006;2023-03-16T20:13:50;101942.27;;;1.18;64.71
77005;BME280;67261;53.132;18.006;2023-03-16T20:16:25;101942.43;;;1.14;64.86
77005;BME280;67261;53.132;18.006;2023-03-16T20:18:58;101937.80;;;1.09;65.18
77005;BME280;67261;53.132;18.006;2023-03-16T20:21:27;101937.79;;;1.05;65.30
77005;BME280;67261;53.132;18.006;2023-03-16T20:23:55;101928.05;;;1.01;65.41
77005;BME280;67261;53.132;18.006;2023-03-16T20:26:25;101927.02;;;0.96;65.43
77005;BME280;67261;53.132;18.006;2023-03-16T20:28:59;101929.60;;;0.92;65.62
77005;BME280;67261;53.132;18.006;2023-03-16T20:31:29;101928.46;;;0.90;65.78
77005;BME280;67261;53.132;18.006;2023-03-16T20:34:02;101924.30;;;0.90;65.86
77005;BME280;67261;53.132;18.006;2023-03-16T20:36:30;101921.45;;;0.91;65.84
77005;BME280;67261;53.132;18.006;2023-03-16T20:38:57;101924.81;;;0.94;66.13
77005;BME280;67261;53.132;18.006;2023-03-16T20:41:28;101923.41;;;0.94;66.08
77005;BME280;67261;53.132;18.006;2023-03-16T20:43:58;101927.39;;;0.95;66.28
77005;BME280;67261;53.132;18.006;2023-03-16T20:46:28;101929.56;;;0.93;66.61
77005;BME280;67261;53.132;18.006;2023-03-16T20:48:57;101926.03;;;0.94;66.79
77005;BME280;67261;53.132;18.006;2023-03-16T20:51:26;101928.30;;;0.94;66.88
77005;BME280;67261;53.132;18.006;2023-03-16T20:53:54;101929.44;;;0.92;66.92
77005;BME280;67261;53.132;18.006;2023-03-16T20:56:23;101927.39;;;0.91;67.19
77005;BME280;67261;53.132;18.006;2023-03-16T20:58:53;101928.30;;;0.90;67.63
77005;BME280;67261;53.132;18.006;2023-03-16T21:01:22;101932.99;;;0.90;67.93
77005;BME280;67261;53.132;18.006;2023-03-16T21:03:53;101934.55;;;0.90;67.99
77005;BME280;67261;53.132;18.006;2023-03-16T21:06:30;101937.70;;;0.94;68.14
77005;BME280;67261;53.132;18.006;2023-03-16T21:08:59;101936.59;;;0.97;68.28
77005;BME280;67261;53.132;18.006;2023-03-16T21:11:31;101933.52;;;0.99;68.28
77005;BME280;67261;53.132;18.006;2023-03-16T21:14:15;101933.64;;;1.00;68.61
77005;BME280;67261;53.132;18.006;2023-03-16T21:17:07;101926.20;;;1.03;68.43
77005;BME280;67261;53.132;18.006;2023-03-16T21:19:36;101925.30;;;1.04;68.61
77005;BME280;67261;53.132;18.006;2023-03-16T21:22:24;101929.52;;;1.03;68.74
77005;BME280;67261;53.132;18.006;2023-03-16T21:24:53;101925.56;;;1.01;68.88
77005;BME280;67261;53.132;18.006;2023-03-16T21:27:23;101922.69;;;0.99;68.80
77005;BME280;67261;53.132;18.006;2023-03-16T21:29:53;101921.05;;;0.97;69.05
77005;BME280;67261;53.132;18.006;2023-03-16T21:32:23;101924.54;;;0.97;68.96
77005;BME280;67261;53.132;18.006;2023-03-16T21:34:55;101925.45;;;1.00;69.11
77005;BME280;67261;53.132;18.006;2023-03-16T21:37:22;101924.84;;;1.02;69.51
77005;BME280;67261;53.132;18.006;2023-03-16T21:39:53;101928.35;;;1.01;69.44
77005;BME280;67261;53.132;18.006;2023-03-16T21:42:21;101930.20;;;0.99;69.69
77005;BME280;67261;53.132;18.006;2023-03-16T21:44:48;101930.31;;;0.96;69.52
77005;BME280;67261;53.132;18.006;2023-03-16T21:47:24;101927.25;;;0.94;69.70
77005;BME280;67261;53.132;18.006;2023-03-16T21:49:52;101926.88;;;0.90;69.77
77005;BME280;67261;53.132;18.006;2023-03-16T21:52:25;101930.70;;;0.86;69.93
77005;BME280;67261;53.132;18.006;2023-03-16T21:54:54;101930.77;;;0.85;69.92
77005;BME280;67261;53.132;18.006;2023-03-16T21:57:23;101930.53;;;0.82;69.99
77005;BME280;67261;53.132;18.006;2023-03-16T21:59:50;101930.03;;;0.81;69.96
77005;BME280;67261;53.132;18.006;2023-03-16T22:02:23;101937.37;;;0.85;69.96
77005;BME280;67261;53.132;18.006;2023-03-16T22:05:28;101941.67;;;0.86;70.11
77005;BME280;67261;53.132;18.006;2023-03-16T22:07:59;101942.81;;;0.88;70.19
77005;BME280;67261;53.132;18.006;2023-03-16T22:10:28;101942.81;;;0.89;70.23
77005;BME280;67261;53.132;18.006;2023-03-16T22:12:57;101945.36;;;0.90;70.28
77005;BME280;67261;53.132;18.006;2023-03-16T22:15:25;101948.64;;;0.91;70.07
77005;BME280;67261;53.132;18.006;2023-03-16T22:17:54;101955.02;;;0.89;70.44
77005;BME280;67261;53.132;18.006;2023-03-16T22:20:24;101950.96;;;0.85;70.33
77005;BME280;67261;53.132;18.006;2023-03-16T22:22:57;101948.20;;;0.85;70.37
77005;BME280;67261;53.132;18.006;2023-03-16T22:25:25;101947.52;;;0.85;70.64
77005;BME280;67261;53.132;18.006;2023-03-16T22:27:53;101948.83;;;0.82;70.82
77005;BME280;67261;53.132;18.006;2023-03-16T22:30:25;101953.09;;;0.80;70.99
77005;BME280;67261;53.132;18.006;2023-03-16T22:32:57;101961.61;;;0.80;70.91
77005;BME280;67261;53.132;18.006;2023-03-16T22:35:34;101962.24;;;0.82;71.20
77005;BME280;67261;53.132;18.006;2023-03-16T22:38:05;101963.60;;;0.83;71.32
77005;BME280;67261;53.132;18.006;2023-03-16T22:40:35;101964.79;;;0.84;71.76
77005;BME280;67261;53.132;18.006;2023-03-16T22:43:15;101964.84;;;0.87;71.71
77005;BME280;67261;53.132;18.006;2023-03-16T22:45:44;101961.02;;;0.90;71.59
77005;BME280;67261;53.132;18.006;2023-03-16T22:48:22;101957.63;;;0.93;71.55
77005;BME280;67261;53.132;18.006;2023-03-16T22:50:50;101960.33;;;0.95;71.71
77005;BME280;67261;53.132;18.006;2023-03-16T22:55:53;101961.98;;;0.98;71.82
77005;BME280;67261;53.132;18.006;2023-03-16T22:58:41;101962.42;;;0.99;71.87
77005;BME280;67261;53.132;18.006;2023-03-16T23:01:17;101959.89;;;1.02;71.92
77005;BME280;67261;53.132;18.006;2023-03-16T23:03:47;101961.05;;;1.03;72.14
77005;BME280;67261;53.132;18.006;2023-03-16T23:06:18;101961.91;;;1.03;72.21
77005;BME280;67261;53.132;18.006;2023-03-16T23:08:50;101964.59;;;1.06;72.31
77005;BME280;67261;53.132;18.006;2023-03-16T23:11:21;101970.06;;;1.08;72.25
77005;BME280;67261;53.132;18.006;2023-03-16T23:13:50;101967.58;;;1.09;72.17
77005;BME280;67261;53.132;18.006;2023-03-16T23:16:24;101962.59;;;1.12;72.13
77005;BME280;67261;53.132;18.006;2023-03-16T23:18:52;101959.52;;;1.15;72.19
77005;BME280;67261;53.132;18.006;2023-03-16T23:21:22;101957.23;;;1.15;72.14
77005;BME280;67261;53.132;18.006;2023-03-16T23:23:51;101951.45;;;1.16;71.93
77005;BME280;67261;53.132;18.006;2023-03-16T23:26:21;101947.57;;;1.17;72.18
77005;BME280;67261;53.132;18.006;2023-03-16T23:28:51;101951.45;;;1.16;72.33
77005;BME280;67261;53.132;18.006;2023-03-16T23:31:20;101956.08;;;1.13;72.53
77005;BME280;67261;53.132;18.006;2023-03-16T23:33:47;101951.09;;;1.08;72.65
77005;BME280;67261;53.132;18.006;2023-03-16T23:36:21;101947.59;;;1.08;72.78
77005;BME280;67261;53.132;18.006;2023-03-16T23:38:51;101940.45;;;1.08;73.03
77005;BME280;67261;53.132;18.006;2023-03-16T23:41:21;101935.49;;;1.06;72.87
77005;BME280;67261;53.132;18.006;2023-03-16T23:43:50;101936.72;;;1.05;73.22
77005;BME280;67261;53.132;18.006;2023-03-16T23:46:19;101935.52;;;1.05;73.30
77005;BME280;67261;53.132;18.006;2023-03-16T23:48:48;101936.23;;;1.00;74.01
77005;BME280;67261;53.132;18.006;2023-03-16T23:51:23;101936.95;;;0.91;74.10
77005;BME280;67261;53.132;18.006;2023-03-16T23:53:54;101932.20;;;0.84;74.36
77005;BME280;67261;53.132;18.006;2023-03-16T23:56:25;101931.92;;;0.82;74.44
77005;BME280;67261;53.132;18.006;2023-03-16T23:58:53;101933.98;;;0.83;74.38
